This is the latest recevied weather packets stored in our database for station/object JP3QZN-13. If no packets are shown the sender has not sent any weather packets the latest 10 day(s).
| Time | Temp. | Humidity | Pressure | Rain* | Wind** | Luminosity | Snow |
|---|---|---|---|---|---|---|---|
| 1777226427 | 14.44° C | 83% | 1008.4 hPa | 0.76 mm | - | - | - |
| 1777224626 | 14.44° C | 83% | 1008.6 hPa | 1.27 mm | - | - | - |
| 1777222826 | 14.44° C | 83% | 1009.2 hPa | 4.57 mm | - | - | - |
| 1777221025 | 14.44° C | 83% | 1009.4 hPa | 8.64 mm | - | - | - |
| 1777219224 | 15° C | 82% | 1010 hPa | 8.13 mm | - | - | - |
| 1777217423 | 15.56° C | 80% | 1010.5 hPa | 4.57 mm | - | - | - |
| 1777215623 | 15.56° C | 80% | 1010.3 hPa | 3.56 mm | - | - | - |
| 1777213822 | 16.11° C | 79% | 1010.9 hPa | 2.29 mm | - | - | - |
| 1777212020 | 16.67° C | 77% | 1011 hPa | 0.25 mm | - | - | - |
| 1777210199 | 16.67° C | 77% | 1011.7 hPa | 0 mm | - | - | - |
| 1777208398 | 16.67° C | 77% | 1012.6 hPa | 0.76 mm | - | - | - |
| 1777206598 | 16.67° C | 77% | 1012.9 hPa | 1.78 mm | - | - | - |
| 1777204827 | 17.22° C | 75% | 1013.5 hPa | 3.05 mm | - | - | - |
| 1777203017 | 17.22° C | 73% | 1014.7 hPa | 1.78 mm | - | - | - |
| 1777201216 | 17.78° C | 70% | 1014.8 hPa | 0.76 mm | - | - | - |
| 1777199414 | 18.89° C | 65% | 1014 hPa | 0.76 mm | - | - | - |
| 1777197623 | 20° C | 57% | 1014.7 hPa | 0 mm | - | - | - |
| 1777195821 | 21.11° C | 52% | 1014.2 hPa | 0 mm | - | - | - |
| 1777194020 | 21.67° C | 50% | 1014 hPa | 0 mm | - | - | - |
| 1777192220 | 21.67° C | 49% | 1013.8 hPa | 0 mm | - | - | - |
| 1777190419 | 22.78° C | 49% | 1014.1 hPa | 0 mm | - | - | - |
| 1777188618 | 23.33° C | 49% | 1014.5 hPa | 0 mm | - | - | - |
| 1777186818 | 24.44° C | 43% | 1014.4 hPa | 0 mm | - | - | - |
| 1777185017 | 25° C | 43% | 1014.4 hPa | 0 mm | - | - | - |
| 1777183216 | 25° C | 42% | 1014.3 hPa | 0 mm | - | - | - |
* Rain latest hour (hover to see other rain measurements)
** Current wind speed in m/s (hover to see current wind gust speed)